Time;durP1;ratioP1;P1;durP2;ratioP2;P2;SDS_P1;SDS_P2;PMS_P1;PMS_P2;Temp;Humidity;BMP_temperature;BMP_pressure;BME280_temperature;BME280_humidity;BME280_pressure;Samples;Min_cycle;Max_cycle;Signal;HPM_P1;HPM_P2
2022/07/31 00:00:15;;;;;;;33.10;20.90;;;;;;;16.03;100.00;101372.56;7391323;19;20396;-59
2022/07/31 00:02:45;;;;;;;33.40;17.50;;;;;;;16.00;100.00;101373.34;7384593;19;20413;-59
2022/07/31 00:05:15;;;;;;;27.50;17.67;;;;;;;16.00;100.00;101383.75;7390824;19;20761;-61
2022/07/31 00:07:45;;;;;;;26.53;18.37;;;;;;;15.96;100.00;101376.72;7382869;19;20423;-62
2022/07/31 00:10:14;;;;;;;33.80;19.60;;;;;;;15.93;100.00;101376.63;7398979;19;20392;-61
2022/07/31 00:12:44;;;;;;;33.77;19.60;;;;;;;15.93;100.00;101380.13;7390077;19;20433;-59
2022/07/31 00:15:16;;;;;;;33.00;19.47;;;;;;;15.95;100.00;101364.56;7398570;19;20393;-59
2022/07/31 00:17:46;;;;;;;33.90;20.63;;;;;;;15.98;100.00;101369.84;7394510;19;20430;-61
2022/07/31 00:20:18;;;;;;;34.00;19.50;;;;;;;15.93;100.00;101361.91;7399631;19;20391;-61
2022/07/31 00:22:49;;;;;;;34.43;22.20;;;;;;;15.97;100.00;101360.25;7391654;19;20407;-61
2022/07/31 00:25:19;;;;;;;31.57;20.60;;;;;;;15.88;100.00;101371.25;7398689;19;20386;-62
2022/07/31 00:27:49;;;;;;;35.17;21.90;;;;;;;15.90;100.00;101366.09;7392368;19;20430;-59
2022/07/31 00:30:21;;;;;;;31.97;20.07;;;;;;;15.82;100.00;101370.16;7399235;19;20394;-62
2022/07/31 00:32:51;;;;;;;31.67;18.67;;;;;;;15.84;100.00;101364.19;7391257;19;20427;-59
2022/07/31 00:35:20;;;;;;;39.40;24.40;;;;;;;15.86;100.00;101377.25;7398043;19;20396;-60
2022/07/31 00:37:50;;;;;;;38.83;23.67;;;;;;;15.80;100.00;101373.63;7389796;19;20803;-60
2022/07/31 00:40:30;;;;;;;31.47;21.50;;;;;;;15.82;100.00;101362.38;7398888;19;20394;-59
2022/07/31 00:43:00;;;;;;;31.03;20.43;;;;;;;15.84;100.00;101365.91;7390254;19;20422;-60
2022/07/31 00:45:32;;;;;;;45.40;26.97;;;;;;;15.85;100.00;101363.34;7400016;19;20392;-62
2022/07/31 00:48:02;;;;;;;31.00;18.57;;;;;;;15.82;100.00;101362.38;7390149;19;20758;-61
2022/07/31 00:50:32;;;;;;;29.20;18.63;;;;;;;15.79;100.00;101358.84;7398751;19;20386;-59
2022/07/31 00:53:02;;;;;;;31.90;21.40;;;;;;;15.77;100.00;101354.44;7390798;19;20773;-62
2022/07/31 00:55:32;;;;;;;34.57;19.07;;;;;;;15.78;100.00;101358.78;7396903;19;20405;-60
2022/07/31 00:58:19;;;;;;;28.40;19.53;;;;;;;15.73;100.00;101347.38;7388194;19;20432;-61
2022/07/31 01:00:51;;;;;;;28.17;19.50;;;;;;;15.71;100.00;101344.75;7398249;19;20388;-61
2022/07/31 01:03:21;;;;;;;31.13;20.57;;;;;;;15.74;100.00;101347.41;7389832;19;20426;-61
2022/07/31 01:05:51;;;;;;;39.17;25.13;;;;;;;15.78;100.00;101351.00;7396562;19;20755;-59
2022/07/31 01:08:20;;;;;;;30.37;20.83;;;;;;;15.72;100.00;101349.09;7389061;19;21097;-60
2022/07/31 01:11:00;;;;;;;34.63;20.60;;;;;;;15.68;100.00;101352.44;7397571;19;20392;-58
2022/07/31 01:13:34;;;;;;;29.30;19.50;;;;;;;15.76;100.00;101358.78;7390388;19;20496;-62
2022/07/31 01:16:07;;;;;;;36.80;18.40;;;;;;;15.75;100.00;101356.97;7396717;19;20413;-60
2022/07/31 01:18:38;;;;;;;32.40;21.57;;;;;;;15.77;100.00;101360.53;7389754;19;20439;-58
2022/07/31 01:21:10;;;;;;;32.10;19.77;;;;;;;15.91;100.00;101362.66;7398289;19;20400;-59
2022/07/31 01:23:51;;;;;;;40.93;21.00;;;;;;;15.71;100.00;101355.16;7390965;19;20414;-60
2022/07/31 01:26:34;;;;;;;32.50;19.47;;;;;;;15.69;100.00;101363.75;7396934;19;20411;-61
2022/07/31 01:29:15;;;;;;;29.50;18.40;;;;;;;15.48;100.00;101370.91;7397279;19;20425;-58
2022/07/31 01:31:48;;;;;;;32.50;20.67;;;;;;;15.49;100.00;101372.69;7389706;19;20890;-60
2022/07/31 01:34:37;;;;;;;28.43;20.07;;;;;;;15.60;100.00;101374.75;7397479;19;20799;-59
2022/07/31 01:37:10;;;;;;;33.63;21.53;;;;;;;15.56;100.00;101370.25;7387859;19;20776;-61
2022/07/31 01:39:44;;;;;;;32.70;20.93;;;;;;;15.46;100.00;101372.59;7397471;19;20399;-61
2022/07/31 01:42:16;;;;;;;41.13;22.73;;;;;;;15.48;100.00;101370.91;7389593;19;20763;-59
2022/07/31 01:44:53;;;;;;;41.93;24.70;;;;;;;15.49;100.00;101374.41;7397122;19;20740;-56
2022/07/31 01:47:23;;;;;;;35.43;22.00;;;;;;;15.46;100.00;101375.19;7388754;19;20409;-62
2022/07/31 01:49:54;;;;;;;39.10;25.10;;;;;;;15.39;100.00;101386.25;7397121;19;20810;-60
2022/07/31 01:52:26;;;;;;;31.93;21.20;;;;;;;15.27;100.00;101380.66;7389602;19;20412;-60
2022/07/31 01:54:57;;;;;;;35.80;22.30;;;;;;;15.21;100.00;101381.31;7396219;19;20385;-60
2022/07/31 01:57:28;;;;;;;41.57;25.80;;;;;;;15.28;100.00;101374.59;7389182;19;20773;-61
2022/07/31 02:00:09;;;;;;;36.37;22.27;;;;;;;15.14;100.00;101377.66;7396886;19;20387;-61
2022/07/31 02:03:00;;;;;;;36.70;21.63;;;;;;;15.07;100.00;101375.69;7388878;19;20414;-62
2022/07/31 02:05:40;;;;;;;29.20;19.03;;;;;;;15.06;100.00;101369.59;7395598;19;20402;-59
2022/07/31 02:08:11;;;;;;;36.30;19.67;;;;;;;14.99;100.00;101370.22;7388217;19;20438;-60
2022/07/31 02:10:41;;;;;;;39.60;20.43;;;;;;;14.97;100.00;101367.56;7396909;19;20472;-62
2022/07/31 02:13:12;;;;;;;33.33;23.03;;;;;;;14.92;100.00;101370.84;7387747;19;20420;-59
2022/07/31 02:15:44;;;;;;;31.60;20.93;;;;;;;14.94;100.00;101369.19;7394993;19;20396;-62
2022/07/31 02:18:14;;;;;;;33.50;22.40;;;;;;;14.93;100.00;101362.22;7387602;19;20427;-61
2022/07/31 02:20:44;;;;;;;30.30;20.57;;;;;;;14.98;100.00;101361.53;7396355;19;20386;-62
2022/07/31 02:23:14;;;;;;;37.70;21.80;;;;;;;14.98;100.00;101368.47;7388132;19;20442;-62
2022/07/31 02:25:45;;;;;;;33.10;23.90;;;;;;;15.04;100.00;101365.16;7399585;19;20412;-59
2022/07/31 02:28:19;;;;;;;39.37;22.57;;;;;;;15.05;100.00;101364.34;7387562;19;20437;-60
2022/07/31 02:30:51;;;;;;;32.77;22.50;;;;;;;15.02;100.00;101365.13;7395813;19;20908;-60
2022/07/31 02:33:22;;;;;;;40.13;23.70;;;;;;;15.00;100.00;101369.38;7388425;19;20962;-59
2022/07/31 02:35:55;;;;;;;29.10;20.40;;;;;;;14.93;100.00;101367.41;7394225;19;20404;-61
2022/07/31 02:38:27;;;;;;;33.77;21.93;;;;;;;14.96;100.00;101365.81;7388107;19;20445;-58
2022/07/31 02:40:59;;;;;;;37.77;21.93;;;;;;;14.91;100.00;101364.75;7395715;19;20905;-62
2022/07/31 02:43:29;;;;;;;34.20;22.23;;;;;;;14.83;100.00;101361.91;7387897;19;20946;-58
2022/07/31 02:46:01;;;;;;;44.90;23.53;;;;;;;14.84;100.00;101362.78;7393923;19;20417;-61
2022/07/31 02:48:31;;;;;;;30.47;19.90;;;;;;;14.84;100.00;101363.69;7387549;19;20775;-61
2022/07/31 02:51:01;;;;;;;33.47;21.80;;;;;;;14.93;100.00;101357.88;7395285;19;20936;-61
2022/07/31 02:53:32;;;;;;;34.70;22.07;;;;;;;14.83;100.00;101355.84;7386746;19;21055;-59
2022/07/31 02:56:03;;;;;;;31.07;21.03;;;;;;;14.88;100.00;101358.59;7393632;19;20416;-60
2022/07/31 02:58:33;;;;;;;30.17;21.10;;;;;;;14.93;100.00;101363.09;7387095;19;20764;-59
2022/07/31 03:01:07;;;;;;;35.83;22.40;;;;;;;15.04;100.00;101354.78;7394970;19;20904;-62
2022/07/31 03:03:36;;;;;;;29.67;20.40;;;;;;;14.95;100.00;101356.25;7386442;19;20422;-59
2022/07/31 03:06:06;;;;;;;34.60;21.87;;;;;;;14.82;100.00;101356.69;7393126;19;20418;-56
2022/07/31 03:08:36;;;;;;;35.70;23.67;;;;;;;15.01;100.00;101365.09;7387099;19;20752;-60
2022/07/31 03:11:05;;;;;;;33.80;21.40;;;;;;;14.75;100.00;101370.25;7394595;19;20912;-59
2022/07/31 03:13:36;;;;;;;39.20;24.37;;;;;;;14.50;100.00;101378.06;7386592;19;20425;-59
2022/07/31 03:16:11;;;;;;;26.87;19.20;;;;;;;14.33;100.00;101382.66;7396355;19;20430;-61
2022/07/31 03:18:41;;;;;;;29.90;19.80;;;;;;;14.44;100.00;101373.53;7386500;19;20942;-60
2022/07/31 03:21:11;;;;;;;32.20;21.07;;;;;;;14.62;100.00;101369.81;7395356;19;20716;-62
2022/07/31 03:23:41;;;;;;;36.70;21.50;;;;;;;14.57;100.00;101368.78;7386291;19;20429;-61
2022/07/31 03:26:13;;;;;;;38.40;21.33;;;;;;;14.61;100.00;101362.84;7392964;19;20417;-59
2022/07/31 03:28:44;;;;;;;36.40;21.80;;;;;;;14.53;100.00;101361.69;7386795;19;20428;-60
2022/07/31 03:31:16;;;;;;;34.77;22.80;;;;;;;14.58;100.00;101360.16;7394017;19;20719;-59
2022/07/31 03:33:45;;;;;;;42.83;22.13;;;;;;;14.38;100.00;101365.53;7386806;19;20979;-58
2022/07/31 03:36:15;;;;;;;39.63;24.80;;;;;;;14.23;100.00;101367.56;7391970;19;20419;-58
2022/07/31 03:38:44;;;;;;;40.00;23.00;;;;;;;14.47;100.00;101356.28;7385138;19;20445;-60
2022/07/31 03:41:19;;;;;;;33.83;22.10;;;;;;;14.49;100.00;101359.81;7393740;19;20392;-60
2022/07/31 03:43:49;;;;;;;38.17;23.47;;;;;;;14.25;100.00;101356.41;7383845;19;20434;-61
2022/07/31 03:46:23;;;;;;;35.50;22.00;;;;;;;14.15;100.00;101370.75;7391762;19;20407;-59
2022/07/31 03:48:53;;;;;;;36.20;20.80;;;;;;;14.11;100.00;101366.28;7386023;19;20442;-58
2022/07/31 03:51:23;;;;;;;32.80;21.63;;;;;;;14.17;100.00;101363.91;7392669;19;20382;-60
2022/07/31 03:53:53;;;;;;;32.90;21.37;;;;;;;14.33;100.00;101359.28;7385703;19;20421;-60
2022/07/31 03:56:23;;;;;;;34.83;22.10;;;;;;;14.26;100.00;101357.31;7392940;19;20741;-59
2022/07/31 03:58:52;;;;;;;33.17;21.83;;;;;;;14.18;100.00;101365.69;7387507;19;20435;-60
2022/07/31 04:01:25;;;;;;;41.53;22.93;;;;;;;14.17;100.00;101363.91;7393245;19;20411;-59
2022/07/31 04:04:15;;;;;;;31.83;22.77;;;;;;;14.15;100.00;101359.50;7391901;19;20422;-62
2022/07/31 04:06:44;;;;;;;40.20;24.40;;;;;;;14.18;100.00;101364.78;7384026;19;20418;-60
2022/07/31 04:09:14;;;;;;;37.60;23.27;;;;;;;14.35;100.00;101360.22;7393284;19;20390;-62
2022/07/31 04:11:47;;;;;;;37.57;22.00;;;;;;;14.47;100.00;101357.19;7386835;19;22391;-58
2022/07/31 04:14:16;;;;;;;37.67;23.03;;;;;;;14.26;100.00;101373.75;7392273;19;20388;-58
2022/07/31 04:16:49;;;;;;;35.83;22.23;;;;;;;14.13;100.00;101369.81;7384464;19;20423;-57
2022/07/31 04:19:18;;;;;;;40.07;21.17;;;;;;;14.07;100.00;101382.56;7392372;19;20931;-61
2022/07/31 04:21:49;;;;;;;39.10;22.67;;;;;;;14.02;100.00;101379.81;7386385;19;20396;-58
2022/07/31 04:24:20;;;;;;;37.67;24.33;;;;;;;14.06;100.00;101379.91;7391562;19;20386;-61
2022/07/31 04:26:50;;;;;;;53.10;33.40;;;;;;;14.11;100.00;101368.88;7387600;19;20761;-61
2022/07/31 04:29:20;;;;;;;43.13;27.27;;;;;;;14.10;100.00;101372.28;7392675;19;20392;-59
2022/07/31 04:31:52;;;;;;;40.43;24.20;;;;;;;14.18;100.00;101365.69;7383217;19;20412;-58
2022/07/31 04:34:21;;;;;;;48.50;28.23;;;;;;;14.27;100.00;101369.44;7391631;19;20917;-59
2022/07/31 04:36:51;;;;;;;36.70;23.97;;;;;;;14.19;100.00;101376.94;7377436;19;20487;-58
2022/07/31 04:39:20;;;;;;;34.73;24.10;;;;;;;14.20;100.00;101373.50;7391529;19;20384;-60
2022/07/31 04:41:50;;;;;;;32.67;22.13;;;;;;;14.23;100.00;101373.66;7385595;19;20411;-59
2022/07/31 04:44:20;;;;;;;35.73;22.80;;;;;;;14.26;100.00;101372.88;7391493;19;20408;-58
2022/07/31 04:46:52;;;;;;;35.40;23.03;;;;;;;14.31;100.00;101389.50;7385406;19;20410;-60
2022/07/31 04:49:21;;;;;;;30.23;20.70;;;;;;;14.36;100.00;101393.13;7392147;19;20389;-60
2022/07/31 04:51:51;;;;;;;46.00;25.00;;;;;;;14.44;100.00;101389.13;7385053;19;20478;-58
2022/07/31 04:54:21;;;;;;;45.80;25.40;;;;;;;14.51;100.00;101394.53;7391007;19;20398;-59
2022/07/31 04:56:50;;;;;;;39.83;25.93;;;;;;;14.57;100.00;101390.41;7388897;19;20984;-60
2022/07/31 04:59:22;;;;;;;42.03;25.17;;;;;;;14.62;100.00;101384.50;7398533;19;20953;-60
2022/07/31 05:01:54;;;;;;;42.20;26.97;;;;;;;14.74;100.00;101386.63;7392592;19;20459;-59
2022/07/31 05:04:25;;;;;;;38.43;26.10;;;;;;;14.77;100.00;101387.66;7398106;19;20908;-58
2022/07/31 05:06:54;;;;;;;40.60;25.90;;;;;;;14.81;100.00;101391.25;7388268;19;20413;-60
2022/07/31 05:09:28;;;;;;;40.80;25.43;;;;;;;14.82;100.00;101400.84;7398773;19;20918;-61
2022/07/31 05:12:00;;;;;;;42.83;25.43;;;;;;;14.85;100.00;101398.31;7391268;19;20438;-58
2022/07/31 05:14:30;;;;;;;35.03;24.17;;;;;;;14.92;100.00;101405.50;7398012;19;20389;-61
2022/07/31 05:17:02;;;;;;;36.63;23.87;;;;;;;14.95;100.00;101397.81;7389830;19;20402;-58
2022/07/31 05:19:32;;;;;;;36.87;24.37;;;;;;;14.95;100.00;101397.81;7399958;19;20424;-58
2022/07/31 05:22:03;;;;;;;41.53;23.73;;;;;;;14.99;100.00;101394.47;7390440;19;20417;-59
2022/07/31 05:24:34;;;;;;;36.57;23.00;;;;;;;15.01;100.00;101396.25;7397416;19;20384;-60
2022/07/31 05:27:03;;;;;;;42.47;23.27;;;;;;;15.06;100.00;101392.97;7389754;19;20933;-58
2022/07/31 05:29:34;;;;;;;34.63;23.87;;;;;;;15.05;100.00;101393.81;7398138;19;20388;-61
2022/07/31 05:32:07;;;;;;;34.90;22.77;;;;;;;15.01;100.00;101385.88;7391520;19;20422;-60
2022/07/31 05:34:37;;;;;;;34.43;23.60;;;;;;;14.99;100.00;101393.59;7397213;19;20459;-59
2022/07/31 05:37:06;;;;;;;41.93;25.00;;;;;;;14.96;100.00;101393.47;7389316;19;20741;-60
2022/07/31 05:39:36;;;;;;;33.73;23.27;;;;;;;14.95;100.00;101399.53;7397393;19;20386;-57
2022/07/31 05:42:06;;;;;;;39.93;22.43;;;;;;;14.95;100.00;101403.00;7389099;19;20437;-61
2022/07/31 05:44:36;;;;;;;37.87;23.20;;;;;;;14.96;100.00;101399.59;7396861;19;20462;-58
2022/07/31 05:47:10;;;;;;;41.93;24.03;;;;;;;14.95;100.00;101400.41;7387820;19;20415;-56
2022/07/31 05:49:40;;;;;;;39.90;23.17;;;;;;;15.03;100.00;101399.78;7397446;19;20375;-56
2022/07/31 05:52:10;;;;;;;38.30;22.47;;;;;;;15.10;100.00;101401.75;7392110;19;20423;-61
2022/07/31 05:54:39;;;;;;;33.90;22.00;;;;;;;15.20;100.00;101397.75;7396407;19;20798;-56
2022/07/31 05:57:09;;;;;;;40.03;22.20;;;;;;;15.31;100.00;101401.59;7388646;19;20945;-57
2022/07/31 05:59:38;;;;;;;36.53;21.83;;;;;;;15.41;100.00;101412.25;7396825;19;20467;-58
2022/07/31 06:02:10;;;;;;;34.13;22.70;;;;;;;15.57;100.00;101408.44;7388349;19;20500;-60
2022/07/31 06:04:40;;;;;;;33.77;21.30;;;;;;;15.67;100.00;101415.69;7396326;19;20384;-58
2022/07/31 06:07:09;;;;;;;31.93;20.87;;;;;;;15.75;100.00;101416.81;7388054;19;20410;-58
2022/07/31 06:09:40;;;;;;;36.90;20.80;;;;;;;15.91;100.00;101425.09;7396973;19;20389;-60
2022/07/31 06:12:10;;;;;;;29.00;20.10;;;;;;;16.05;100.00;101428.16;7388362;19;20419;-59
2022/07/31 06:14:40;;;;;;;29.23;20.07;;;;;;;16.18;100.00;101439.81;7395913;19;20405;-61
2022/07/31 06:17:12;;;;;;;31.57;21.07;;;;;;;16.26;100.00;101448.72;7385372;19;20953;-61
2022/07/31 06:19:42;;;;;;;29.73;20.00;;;;;;;16.33;100.00;101455.91;7396527;19;20413;-58
2022/07/31 06:22:11;;;;;;;28.67;19.57;;;;;;;16.41;100.00;101448.28;7388517;19;20422;-61
2022/07/31 06:24:41;;;;;;;37.50;23.73;;;;;;;16.59;100.00;101447.94;7395503;19;20394;-58
2022/07/31 06:27:11;;;;;;;29.53;18.23;;;;;;;16.72;100.00;101456.94;7388209;19;20898;-59
2022/07/31 06:30:01;;;;;;;23.77;16.53;;;;;;;16.72;100.00;101456.09;7396482;19;20385;-59
2022/07/31 06:32:34;;;;;;;36.67;22.80;;;;;;;16.83;100.00;101456.38;7388041;19;21025;-59
2022/07/31 06:35:04;;;;;;;25.43;17.67;;;;;;;16.93;100.00;101454.91;7394957;19;20924;-59
2022/07/31 06:37:33;;;;;;;33.27;18.17;;;;;;;17.06;100.00;101451.78;7385792;19;20960;-61
2022/07/31 06:40:03;;;;;;;30.60;19.60;;;;;;;17.33;100.00;101442.91;7395462;19;21007;-60
2022/07/31 06:42:33;;;;;;;19.63;13.70;;;;;;;17.38;100.00;101446.50;7389711;19;20420;-60
2022/07/31 06:45:02;;;;;;;20.93;13.20;;;;;;;17.50;100.00;101450.28;7394961;19;20410;-60
2022/07/31 06:47:34;;;;;;;21.20;12.00;;;;;;;17.44;100.00;101455.34;7385350;19;20421;-61
2022/07/31 06:50:04;;;;;;;17.50;11.50;;;;;;;17.58;100.00;101461.75;7393157;19;20378;-59
2022/07/31 06:52:34;;;;;;;14.63;9.70;;;;;;;17.70;100.00;101470.72;7386456;19;20418;-61
2022/07/31 06:55:03;;;;;;;11.70;8.30;;;;;;;17.68;100.00;101474.19;7391889;19;20391;-60
2022/07/31 06:57:33;;;;;;;16.47;8.67;;;;;;;17.72;100.00;101492.50;7385230;19;20426;-60
2022/07/31 07:00:03;;;;;;;12.40;8.13;;;;;;;17.83;100.00;101493.66;7393218;19;20395;-62
2022/07/31 07:02:51;;;;;;;21.17;9.40;;;;;;;17.73;100.00;101505.59;7381678;19;20441;-59
2022/07/31 07:05:21;;;;;;;14.60;9.40;;;;;;;17.72;100.00;101502.94;7395766;19;20954;-60
2022/07/31 07:07:50;;;;;;;37.40;21.67;;;;;;;17.75;100.00;101514.34;7388185;19;20410;-61
2022/07/31 07:10:20;;;;;;;73.43;43.00;;;;;;;17.80;100.00;101506.66;7396352;19;20391;-59
2022/07/31 07:12:49;;;;;;;13.30;7.67;;;;;;;17.90;100.00;101508.59;7386997;19;20423;-61
2022/07/31 07:15:19;;;;;;;33.30;18.33;;;;;;;17.89;100.00;101503.38;7393151;19;20400;-60
2022/07/31 07:17:51;;;;;;;9.67;7.00;;;;;;;17.91;100.00;101510.41;7384446;19;20422;-60
2022/07/31 07:20:21;;;;;;;11.60;7.97;;;;;;;17.95;100.00;101500.91;7398475;19;20394;-59
2022/07/31 07:22:51;;;;;;;10.57;6.80;;;;;;;18.00;100.00;101487.97;7386717;19;20418;-59
2022/07/31 07:25:21;;;;;;;13.77;8.80;;;;;;;17.97;100.00;101487.88;7392612;19;20395;-60
2022/07/31 07:27:50;;;;;;;24.80;13.93;;;;;;;18.08;100.00;101471.66;7388088;19;20518;-60
2022/07/31 07:30:20;;;;;;;11.53;6.60;;;;;;;18.18;100.00;101469.22;7393707;19;20394;-58
2022/07/31 07:32:52;;;;;;;11.50;6.33;;;;;;;18.11;100.00;101475.16;7384512;19;20425;-59
2022/07/31 07:35:22;;;;;;;30.97;13.23;;;;;;;18.14;100.00;101475.25;7393103;19;20476;-62
2022/07/31 07:37:51;;;;;;;13.33;8.20;;;;;;;18.15;100.00;101479.63;7386243;19;20422;-59
2022/07/31 07:40:22;;;;;;;9.20;5.53;;;;;;;18.20;100.00;101480.59;7393653;19;20848;-61
2022/07/31 07:42:51;;;;;;;17.80;10.80;;;;;;;18.16;100.00;101491.81;7383651;19;20429;-60
2022/07/31 07:45:21;;;;;;;10.83;5.93;;;;;;;18.22;100.00;101490.22;7392431;19;20392;-59
2022/07/31 07:47:53;;;;;;;11.40;4.67;;;;;;;18.19;100.00;101503.22;7385221;19;20423;-58
2022/07/31 07:50:36;;;;;;;13.23;6.70;;;;;;;18.19;100.00;101513.66;7394813;19;20419;-61
2022/07/31 07:53:05;;;;;;;12.37;6.40;;;;;;;18.27;100.00;101529.50;7385900;19;20503;-61
2022/07/31 07:55:35;;;;;;;7.80;3.90;;;;;;;18.32;100.00;101540.91;7391993;19;20402;-60
2022/07/31 07:58:06;;;;;;;8.93;4.63;;;;;;;18.38;100.00;101539.28;7385290;19;20406;-61
2022/07/31 08:00:40;;;;;;;8.13;4.03;;;;;;;18.44;100.00;101528.97;7392665;19;20392;-60
2022/07/31 08:03:12;;;;;;;16.67;7.33;;;;;;;18.47;100.00;101526.44;7386066;19;20425;-59
2022/07/31 08:06:02;;;;;;;10.10;5.13;;;;;;;18.55;100.00;101519.63;7391452;19;20399;-62
2022/07/31 08:08:31;;;;;;;31.20;11.77;;;;;;;18.59;100.00;101525.81;7385688;19;20425;-59
2022/07/31 08:11:02;;;;;;;39.70;14.17;;;;;;;18.65;100.00;101536.38;7395796;19;20392;-60
2022/07/31 08:13:31;;;;;;;8.53;4.50;;;;;;;18.70;100.00;101545.22;7385092;19;20411;-60
2022/07/31 08:16:01;;;;;;;19.63;7.30;;;;;;;18.66;100.00;101563.41;7391208;19;20416;-58
2022/07/31 08:18:33;;;;;;;24.87;11.20;;;;;;;18.74;100.00;101567.06;7385485;19;20550;-60
2022/07/31 08:21:03;;;;;;;10.73;3.90;;;;;;;18.71;100.00;101567.88;7392301;19;20466;-59
2022/07/31 08:23:32;;;;;;;9.30;5.97;;;;;;;18.69;100.00;101574.81;7384554;19;20951;-61
2022/07/31 08:26:03;;;;;;;5.93;4.00;;;;;;;18.72;100.00;101561.78;7391327;19;20428;-60
2022/07/31 08:28:34;;;;;;;13.27;6.30;;;;;;;18.69;100.00;101551.28;7385530;19;20415;-61
2022/07/31 08:31:05;;;;;;;8.17;3.47;;;;;;;18.83;100.00;101542.84;7401800;19;20406;-60
2022/07/31 08:33:37;;;;;;;11.67;4.70;;;;;;;18.92;100.00;101539.53;7392841;19;20461;-61
2022/07/31 08:36:07;;;;;;;11.13;4.50;;;;;;;18.96;100.00;101536.09;7397893;19;20419;-59
2022/07/31 08:38:38;;;;;;;11.77;6.47;;;;;;;18.90;100.00;101547.34;7393166;19;20409;-60
2022/07/31 08:41:07;;;;;;;9.00;3.93;;;;;;;18.92;100.00;101556.09;7399128;19;20392;-61
2022/07/31 08:43:37;;;;;;;11.23;5.50;;;;;;;18.95;100.00;101566.63;7391738;19;20828;-61
2022/07/31 08:46:27;;;;;;;10.83;5.50;;;;;;;19.10;100.00;101573.03;7398448;19;20745;-58
2022/07/31 08:48:59;;;;;;;7.60;4.63;;;;;;;19.08;100.00;101593.03;7398401;19;20874;-60
2022/07/31 08:51:30;;;;;;;6.50;3.43;;;;;;;19.07;100.00;101592.16;7396921;19;20405;-59
2022/07/31 08:54:01;;;;;;;5.53;3.20;;;;;;;19.21;100.00;101583.69;7396244;19;20417;-61
2022/07/31 08:56:30;;;;;;;8.23;4.87;;;;;;;19.25;100.00;101581.19;7391784;19;20439;-59
2022/07/31 08:59:00;;;;;;;8.27;4.50;;;;;;;19.35;100.00;101583.94;7400548;19;20395;-58
2022/07/31 09:01:30;;;;;;;7.03;2.70;;;;;;;19.48;100.00;101590.31;7390775;19;20402;-61
2022/07/31 09:04:03;;;;;;;6.33;3.33;;;;;;;19.64;100.00;101596.69;7397481;19;20970;-60
2022/07/31 09:06:32;;;;;;;5.27;3.33;;;;;;;19.66;100.00;101603.72;7390544;19;20417;-61
2022/07/31 09:09:02;;;;;;;6.57;3.30;;;;;;;19.74;100.00;101598.59;7398023;19;20379;-61
2022/07/31 09:11:32;;;;;;;5.57;2.90;;;;;;;19.68;100.00;101606.34;7395146;19;20392;-61
2022/07/31 09:14:03;;;;;;;8.00;3.40;;;;;;;19.68;100.00;101606.34;7397156;19;20766;-61
2022/07/31 09:16:33;;;;;;;13.33;4.23;;;;;;;19.66;100.00;101608.06;7392168;19;20415;-60
2022/07/31 09:19:06;;;;;;;8.40;2.87;;;;;;;19.61;100.00;101631.53;7399920;19;20467;-59
2022/07/31 09:21:56;;;;;;;7.93;3.33;;;;;;;19.50;100.00;101631.34;7390455;19;20406;-60
2022/07/31 09:24:30;;;;;;;4.37;3.00;;;;;;;19.40;100.00;101645.09;7397844;19;20380;-59
2022/07/31 09:27:07;;;;;;;4.30;2.40;;;;;;;19.35;100.00;101638.88;7388388;19;20403;-61
2022/07/31 09:29:38;;;;;;;9.40;3.03;;;;;;;19.32;100.00;101639.72;7397933;19;20386;-61
2022/07/31 09:32:12;;;;;;;5.70;2.90;;;;;;;19.37;100.00;101635.44;7389473;19;20423;-61
2022/07/31 09:34:45;;;;;;;5.40;3.20;;;;;;;19.48;100.00;101627.78;7401815;19;20391;-61
2022/07/31 09:37:15;;;;;;;4.80;3.37;;;;;;;19.54;100.00;101619.19;7388011;19;20414;-60
2022/07/31 09:39:50;;;;;;;6.23;3.60;;;;;;;19.62;100.00;101629.78;7397832;19;20406;-61
2022/07/31 09:42:22;;;;;;;5.93;2.80;;;;;;;19.49;100.00;101632.16;7387763;19;20430;-59
2022/07/31 09:44:52;;;;;;;6.80;3.23;;;;;;;19.53;100.00;101623.53;7396818;19;20403;-61
2022/07/31 09:47:25;;;;;;;10.40;3.10;;;;;;;19.65;100.00;101630.72;7388521;19;20417;-60
2022/07/31 09:49:59;;;;;;;4.97;2.53;;;;;;;19.77;100.00;101637.94;7397058;19;20392;-61
2022/07/31 09:52:31;;;;;;;7.17;3.53;;;;;;;19.82;100.00;101657.22;7389572;19;20423;-57
2022/07/31 09:55:05;;;;;;;8.80;2.70;;;;;;;19.96;100.00;101664.47;7396316;19;20384;-61
2022/07/31 09:57:53;;;;;;;6.13;2.70;;;;;;;20.08;100.00;101633.25;7391178;19;20458;-61
2022/07/31 10:00:23;;;;;;;4.53;2.47;;;;;;;20.17;100.00;101605.41;7397127;19;20917;-60
2022/07/31 10:02:55;;;;;;;8.53;2.93;;;;;;;20.48;100.00;101590.16;7389102;19;20976;-60
2022/07/31 10:05:30;;;;;;;11.40;3.83;;;;;;;20.49;100.00;101571.84;7396038;19;20390;-61
2022/07/31 10:08:00;;;;;;;9.83;3.97;;;;;;;20.67;100.00;101554.59;7389853;19;20758;-59
2022/07/31 10:10:31;;;;;;;8.00;3.60;;;;;;;20.70;100.00;101548.47;7399193;19;20917;-60
2022/07/31 10:13:03;;;;;;;5.93;2.83;;;;;;;20.82;100.00;101529.41;7389210;19;20929;-60
2022/07/31 10:15:35;;;;;;;5.47;2.97;;;;;;;21.27;100.00;101530.78;7394956;19;20921;-59
2022/07/31 10:18:07;;;;;;;6.60;2.77;;;;;;;21.65;100.00;101479.47;7392708;19;20754;-61
2022/07/31 10:20:41;;;;;;;6.07;2.43;;;;;;;21.59;100.00;101091.78;7400304;19;20473;-60
2022/07/31 10:23:15;;;;;;;7.47;2.90;;;;;;;21.71;100.00;100770.66;7388941;19;20445;-60
2022/07/31 10:25:47;;;;;;;4.73;2.73;;;;;;;21.50;100.00;100610.63;7395999;19;20934;-60
2022/07/31 10:28:23;;;;;;;7.90;3.07;;;;;;;21.43;100.00;100581.78;7392725;19;20414;-60
2022/07/31 10:30:53;;;;;;;8.37;3.13;;;;;;;21.89;100.00;100569.25;7397498;19;20396;-60
2022/07/31 10:33:23;;;;;;;32.93;16.20;;;;;;;22.02;100.00;100553.38;7389463;19;20969;-59
2022/07/31 10:36:18;;;;;;;16.00;8.97;;;;;;;22.04;100.00;100535.88;7393791;19;20422;-59
2022/07/31 10:38:53;;;;;;;17.73;8.83;;;;;;;22.17;100.00;100548.00;7388349;19;20421;-61
2022/07/31 10:41:30;;;;;;;27.63;12.20;;;;;;;22.28;100.00;100603.06;7395739;19;20387;-61
2022/07/31 10:44:02;;;;;;;10.43;5.10;;;;;;;22.36;100.00;100706.34;7392053;19;20498;-60
2022/07/31 10:46:33;;;;;;;5.10;2.33;;;;;;;22.52;100.00;100842.94;7388491;19;20495;-59
2022/07/31 10:49:03;;;;;;;5.80;2.40;;;;;;;22.58;100.00;100987.50;7393364;19;20404;-60
2022/07/31 10:51:48;;;;;;;4.73;2.63;;;;;;;22.61;100.00;101005.00;7387710;19;20387;-60
2022/07/31 10:54:18;;;;;;;4.90;2.63;;;;;;;22.50;100.00;101075.97;7394329;19;20745;-60
2022/07/31 10:56:48;;;;;;;11.43;3.17;;;;;;;22.62;100.00;101069.84;7386878;19;20468;-61
2022/07/31 10:59:17;;;;;;;7.93;3.00;;;;;;;22.48;100.00;101128.56;7395022;19;20383;-60
2022/07/31 11:01:48;;;;;;;4.77;2.27;;;;;;;22.46;100.00;101190.75;7387230;19;20401;-60
2022/07/31 11:04:28;;;;;;;8.80;2.53;;;;;;;22.37;100.00;101264.38;7392823;19;21099;-60
2022/07/31 11:07:00;;;;;;;10.90;4.20;;;;;;;22.72;100.00;101254.75;7385078;19;20434;-59
2022/07/31 11:09:30;;;;;;;6.57;2.87;;;;;;;22.76;100.00;101290.69;7393459;19;20772;-60
2022/07/31 11:12:00;;;;;;;6.27;2.97;;;;;;;22.69;100.00;101313.47;7386522;19;20426;-60
2022/07/31 11:14:33;;;;;;;4.90;3.00;;;;;;;22.78;100.00;101297.69;7393821;19;20388;-60
2022/07/31 11:17:03;;;;;;;7.73;2.40;;;;;;;22.88;100.00;101322.25;7386213;19;20417;-58
2022/07/31 11:19:40;;;;;;;8.37;3.30;;;;;;;23.00;100.00;101341.50;7394485;19;20384;-60
2022/07/31 11:22:16;;;;;;;8.40;3.10;;;;;;;22.99;100.00;101316.97;7385997;19;20419;-60
2022/07/31 11:25:00;;;;;;;6.10;2.50;;;;;;;23.08;100.00;101320.47;7393243;19;20479;-60
2022/07/31 11:27:33;;;;;;;9.03;2.90;;;;;;;22.89;100.00;101352.06;7389395;19;20410;-58